Alpena County Regional Airport Alpena US
ICAO: KAPN
IATA: APN
Category: Medium
Scheduled Services: Yes

Elevation: 690 ft
TransAlt. 18000 ft.

Airport Communications:
APP/DEP:128.425
ASOS:120.675
CTAF:121.35
GND:121.9
PTD:37.22
LANSING RDO:108.8
TWR:121.35
UNICOM:122.95

KAPN Zoom In..

Runways:

(A) RW 01 length 9001 ft width 150 ft
ILS 109.70 / hdg 7

(B) RW 07 length 5028 ft width 100 ft
---- / hdg 67

(C) RW 19 length 9001 ft width 150 ft
---- / hdg 187

(D) RW 25 length 5028 ft width 100 ft
---- / hdg 247

Location; KAPN
Day. 20 / Time. 19.54 Zulu
* Altimeter: 29.83
* Temperature: 26° c. 78.8°f.
* Wind from: 140° Speed 12 kn with Gusts up to 21 kn.
Dewpoint: 19° c.
Visibility: 10 Statute Miles.
Clouds: Clear (automated report).

KAPN 201954Z AUTO 14012G21KT 10SM CLR 26/19 A2983 RMK AO2 SLP097 T02610189


Wind From 140°
Speed 12 kn.

 
 
jpsmedia.com for Web Design worldairports.se 2018   terms of use